sensor_id;sensor_type;location;lat;lon;timestamp;P1;durP1;ratioP1;P2;durP2;ratioP2
52618;SDS011;38513;53.234;6.568;2023-07-29T13:13:12;6.30;;;1.88;;
52618;SDS011;38513;53.234;6.568;2023-07-29T13:15:40;6.70;;;2.03;;
52618;SDS011;38513;53.234;6.568;2023-07-29T13:18:06;5.80;;;2.00;;
52618;SDS011;38513;53.234;6.568;2023-07-29T13:20:36;6.10;;;1.90;;
52618;SDS011;38513;53.234;6.568;2023-07-29T13:23:02;5.55;;;1.75;;
52618;SDS011;38513;53.234;6.568;2023-07-29T13:25:28;6.55;;;1.98;;
52618;SDS011;38513;53.234;6.568;2023-07-29T13:27:57;7.05;;;1.98;;
52618;SDS011;38513;53.234;6.568;2023-07-29T13:30:23;6.43;;;2.20;;
52618;SDS011;38513;53.234;6.568;2023-07-29T13:32:49;7.25;;;2.03;;
52618;SDS011;38513;53.234;6.568;2023-07-29T13:35:15;7.18;;;1.80;;
52618;SDS011;38513;53.234;6.568;2023-07-29T13:37:41;7.22;;;2.00;;
52618;SDS011;38513;53.234;6.568;2023-07-29T13:40:07;5.30;;;1.77;;
52618;SDS011;38513;53.234;6.568;2023-07-29T13:42:33;7.93;;;1.92;;
52618;SDS011;38513;53.234;6.568;2023-07-29T13:48:05;7.13;;;2.10;;
52618;SDS011;38513;53.234;6.568;2023-07-29T13:50:33;7.35;;;2.13;;
52618;SDS011;38513;53.234;6.568;2023-07-29T13:53:00;6.78;;;2.05;;
52618;SDS011;38513;53.234;6.568;2023-07-29T13:55:28;6.47;;;2.10;;
52618;SDS011;38513;53.234;6.568;2023-07-29T13:57:54;6.78;;;2.03;;
52618;SDS011;38513;53.234;6.568;2023-07-29T14:00:21;5.88;;;1.88;;
52618;SDS011;38513;53.234;6.568;2023-07-29T14:02:47;7.78;;;2.38;;
52618;SDS011;38513;53.234;6.568;2023-07-29T14:05:13;6.63;;;2.00;;
52618;SDS011;38513;53.234;6.568;2023-07-29T14:07:39;5.85;;;1.90;;
52618;SDS011;38513;53.234;6.568;2023-07-29T14:10:05;8.80;;;2.40;;
52618;SDS011;38513;53.234;6.568;2023-07-29T14:12:38;7.90;;;2.20;;
52618;SDS011;38513;53.234;6.568;2023-07-29T14:15:06;7.07;;;2.20;;
52618;SDS011;38513;53.234;6.568;2023-07-29T14:17:54;6.22;;;2.22;;
52618;SDS011;38513;53.234;6.568;2023-07-29T14:20:23;6.95;;;2.30;;
52618;SDS011;38513;53.234;6.568;2023-07-29T14:22:49;5.93;;;2.10;;
52618;SDS011;38513;53.234;6.568;2023-07-29T14:25:18;7.37;;;2.10;;
52618;SDS011;38513;53.234;6.568;2023-07-29T14:27:47;6.78;;;2.28;;
52618;SDS011;38513;53.234;6.568;2023-07-29T14:30:16;7.68;;;2.10;;
52618;SDS011;38513;53.234;6.568;2023-07-29T14:32:42;7.80;;;2.40;;
52618;SDS011;38513;53.234;6.568;2023-07-29T14:35:11;7.07;;;2.22;;
52618;SDS011;38513;53.234;6.568;2023-07-29T14:37:37;7.93;;;2.45;;
52618;SDS011;38513;53.234;6.568;2023-07-29T14:40:04;8.10;;;2.13;;
52618;SDS011;38513;53.234;6.568;2023-07-29T14:42:30;7.20;;;2.30;;
52618;SDS011;38513;53.234;6.568;2023-07-29T14:44:56;7.72;;;2.50;;
52618;SDS011;38513;53.234;6.568;2023-07-29T14:47:22;7.20;;;2.65;;
52618;SDS011;38513;53.234;6.568;2023-07-29T14:49:51;10.18;;;2.80;;
52618;SDS011;38513;53.234;6.568;2023-07-29T14:52:17;9.10;;;2.50;;
52618;SDS011;38513;53.234;6.568;2023-07-29T14:54:43;6.57;;;2.28;;
52618;SDS011;38513;53.234;6.568;2023-07-29T14:57:10;7.28;;;2.42;;
52618;SDS011;38513;53.234;6.568;2023-07-29T14:59:36;7.72;;;2.30;;
52618;SDS011;38513;53.234;6.568;2023-07-29T15:02:03;8.10;;;2.53;;
52618;SDS011;38513;53.234;6.568;2023-07-29T15:04:29;7.93;;;2.80;;
52618;SDS011;38513;53.234;6.568;2023-07-29T15:06:56;7.68;;;2.08;;
52618;SDS011;38513;53.234;6.568;2023-07-29T15:09:28;7.25;;;2.20;;
52618;SDS011;38513;53.234;6.568;2023-07-29T15:11:54;6.80;;;2.10;;
52618;SDS011;38513;53.234;6.568;2023-07-29T15:14:24;6.80;;;2.00;;
52618;SDS011;38513;53.234;6.568;2023-07-29T15:16:50;6.78;;;2.42;;
52618;SDS011;38513;53.234;6.568;2023-07-29T15:19:16;7.13;;;2.05;;
52618;SDS011;38513;53.234;6.568;2023-07-29T15:21:43;6.13;;;1.92;;
52618;SDS011;38513;53.234;6.568;2023-07-29T15:24:09;8.15;;;1.98;;
52618;SDS011;38513;53.234;6.568;2023-07-29T15:26:35;5.22;;;1.95;;
52618;SDS011;38513;53.234;6.568;2023-07-29T15:29:01;6.65;;;1.80;;
52618;SDS011;38513;53.234;6.568;2023-07-29T15:31:28;6.03;;;1.70;;
52618;SDS011;38513;53.234;6.568;2023-07-29T15:33:54;6.15;;;1.80;;
52618;SDS011;38513;53.234;6.568;2023-07-29T15:36:30;5.72;;;1.83;;
52618;SDS011;38513;53.234;6.568;2023-07-29T15:38:56;6.07;;;1.60;;
52618;SDS011;38513;53.234;6.568;2023-07-29T15:41:22;5.97;;;1.60;;
52618;SDS011;38513;53.234;6.568;2023-07-29T15:43:48;5.60;;;1.50;;
52618;SDS011;38513;53.234;6.568;2023-07-29T15:46:15;5.07;;;1.40;;
52618;SDS011;38513;53.234;6.568;2023-07-29T15:48:41;6.57;;;2.00;;
52618;SDS011;38513;53.234;6.568;2023-07-29T15:51:10;9.55;;;2.53;;
52618;SDS011;38513;53.234;6.568;2023-07-29T15:53:36;6.32;;;1.70;;
52618;SDS011;38513;53.234;6.568;2023-07-29T15:56:02;7.53;;;1.80;;
52618;SDS011;38513;53.234;6.568;2023-07-29T15:58:29;5.80;;;1.60;;
52618;SDS011;38513;53.234;6.568;2023-07-29T16:00:55;7.00;;;1.75;;
52618;SDS011;38513;53.234;6.568;2023-07-29T16:03:21;6.95;;;1.85;;
52618;SDS011;38513;53.234;6.568;2023-07-29T16:05:47;7.47;;;1.98;;
52618;SDS011;38513;53.234;6.568;2023-07-29T16:08:13;8.27;;;1.90;;
52618;SDS011;38513;53.234;6.568;2023-07-29T16:10:40;6.13;;;1.80;;
52618;SDS011;38513;53.234;6.568;2023-07-29T16:13:10;7.17;;;1.70;;
52618;SDS011;38513;53.234;6.568;2023-07-29T16:15:38;6.55;;;1.77;;
52618;SDS011;38513;53.234;6.568;2023-07-29T16:18:04;6.17;;;2.20;;
52618;SDS011;38513;53.234;6.568;2023-07-29T16:20:30;7.32;;;1.83;;
52618;SDS011;38513;53.234;6.568;2023-07-29T16:22:56;6.75;;;1.70;;
52618;SDS011;38513;53.234;6.568;2023-07-29T16:25:22;6.45;;;1.80;;
52618;SDS011;38513;53.234;6.568;2023-07-29T16:27:49;7.55;;;1.63;;
52618;SDS011;38513;53.234;6.568;2023-07-29T16:30:15;4.97;;;1.50;;
52618;SDS011;38513;53.234;6.568;2023-07-29T16:32:41;6.30;;;1.75;;
52618;SDS011;38513;53.234;6.568;2023-07-29T16:35:07;6.70;;;1.87;;
52618;SDS011;38513;53.234;6.568;2023-07-29T16:37:33;6.22;;;1.70;;
52618;SDS011;38513;53.234;6.568;2023-07-29T16:40:00;5.00;;;1.25;;
52618;SDS011;38513;53.234;6.568;2023-07-29T16:42:27;5.13;;;1.30;;
52618;SDS011;38513;53.234;6.568;2023-07-29T16:44:53;3.75;;;1.30;;
52618;SDS011;38513;53.234;6.568;2023-07-29T16:47:19;5.15;;;1.40;;
52618;SDS011;38513;53.234;6.568;2023-07-29T16:49:48;4.80;;;1.40;;
52618;SDS011;38513;53.234;6.568;2023-07-29T16:52:17;5.35;;;1.33;;
52618;SDS011;38513;53.234;6.568;2023-07-29T16:54:43;6.40;;;1.80;;
52618;SDS011;38513;53.234;6.568;2023-07-29T16:57:10;6.38;;;1.55;;
52618;SDS011;38513;53.234;6.568;2023-07-29T16:59:39;5.77;;;1.47;;
52618;SDS011;38513;53.234;6.568;2023-07-29T17:02:08;6.03;;;1.48;;
52618;SDS011;38513;53.234;6.568;2023-07-29T17:04:34;4.93;;;1.38;;
52618;SDS011;38513;53.234;6.568;2023-07-29T17:07:02;4.78;;;1.40;;
52618;SDS011;38513;53.234;6.568;2023-07-29T17:09:31;3.75;;;1.20;;
52618;SDS011;38513;53.234;6.568;2023-07-29T17:11:57;5.03;;;1.30;;
52618;SDS011;38513;53.234;6.568;2023-07-29T17:14:27;5.10;;;1.20;;
52618;SDS011;38513;53.234;6.568;2023-07-29T17:16:54;4.18;;;1.40;;
52618;SDS011;38513;53.234;6.568;2023-07-29T17:19:20;5.15;;;1.27;;
52618;SDS011;38513;53.234;6.568;2023-07-29T17:21:47;4.70;;;1.30;;
52618;SDS011;38513;53.234;6.568;2023-07-29T17:24:13;4.93;;;1.30;;
52618;SDS011;38513;53.234;6.568;2023-07-29T17:26:39;5.73;;;1.60;;
52618;SDS011;38513;53.234;6.568;2023-07-29T17:29:05;3.70;;;1.25;;
52618;SDS011;38513;53.234;6.568;2023-07-29T17:31:34;4.95;;;1.33;;
52618;SDS011;38513;53.234;6.568;2023-07-29T17:34:01;5.68;;;1.60;;
52618;SDS011;38513;53.234;6.568;2023-07-29T17:36:27;4.40;;;1.48;;
52618;SDS011;38513;53.234;6.568;2023-07-29T17:38:59;3.97;;;1.20;;
52618;SDS011;38513;53.234;6.568;2023-07-29T17:41:25;6.00;;;1.42;;
52618;SDS011;38513;53.234;6.568;2023-07-29T17:43:51;4.32;;;1.30;;
52618;SDS011;38513;53.234;6.568;2023-07-29T17:46:17;4.22;;;1.15;;
52618;SDS011;38513;53.234;6.568;2023-07-29T17:48:47;4.30;;;1.30;;
52618;SDS011;38513;53.234;6.568;2023-07-29T17:51:13;5.97;;;1.90;;
52618;SDS011;38513;53.234;6.568;2023-07-29T17:53:39;5.35;;;1.52;;
52618;SDS011;38513;53.234;6.568;2023-07-29T17:56:05;5.13;;;1.40;;
52618;SDS011;38513;53.234;6.568;2023-07-29T17:58:33;4.95;;;1.23;;
52618;SDS011;38513;53.234;6.568;2023-07-29T18:01:00;4.60;;;1.48;;
52618;SDS011;38513;53.234;6.568;2023-07-29T18:03:27;5.73;;;1.20;;
52618;SDS011;38513;53.234;6.568;2023-07-29T18:05:53;4.90;;;1.33;;
52618;SDS011;38513;53.234;6.568;2023-07-29T18:08:19;4.88;;;1.13;;
52618;SDS011;38513;53.234;6.568;2023-07-29T18:10:45;4.40;;;1.20;;
52618;SDS011;38513;53.234;6.568;2023-07-29T18:13:11;4.22;;;1.40;;
52618;SDS011;38513;53.234;6.568;2023-07-29T18:15:37;5.77;;;1.27;;
52618;SDS011;38513;53.234;6.568;2023-07-29T18:18:06;5.13;;;1.30;;
52618;SDS011;38513;53.234;6.568;2023-07-29T18:20:33;4.40;;;1.52;;
52618;SDS011;38513;53.234;6.568;2023-07-29T18:23:02;5.00;;;1.60;;
52618;SDS011;38513;53.234;6.568;2023-07-29T18:25:32;5.50;;;1.70;;
52618;SDS011;38513;53.234;6.568;2023-07-29T18:27:59;5.50;;;1.60;;
52618;SDS011;38513;53.234;6.568;2023-07-29T18:30:25;5.40;;;1.55;;
52618;SDS011;38513;53.234;6.568;2023-07-29T18:32:52;6.18;;;1.63;;
52618;SDS011;38513;53.234;6.568;2023-07-29T18:35:18;5.28;;;1.50;;
52618;SDS011;38513;53.234;6.568;2023-07-29T18:37:45;5.17;;;1.63;;
52618;SDS011;38513;53.234;6.568;2023-07-29T18:40:11;4.78;;;1.60;;
52618;SDS011;38513;53.234;6.568;2023-07-29T18:42:38;6.05;;;1.55;;
52618;SDS011;38513;53.234;6.568;2023-07-29T18:45:05;4.55;;;1.55;;
52618;SDS011;38513;53.234;6.568;2023-07-29T18:47:31;5.70;;;1.60;;
52618;SDS011;38513;53.234;6.568;2023-07-29T18:49:57;4.78;;;1.55;;
52618;SDS011;38513;53.234;6.568;2023-07-29T18:52:33;6.37;;;1.80;;
52618;SDS011;38513;53.234;6.568;2023-07-29T18:55:00;4.70;;;1.63;;
52618;SDS011;38513;53.234;6.568;2023-07-29T18:57:26;4.85;;;1.70;;
52618;SDS011;38513;53.234;6.568;2023-07-29T18:59:53;5.15;;;1.70;;
52618;SDS011;38513;53.234;6.568;2023-07-29T19:02:19;5.55;;;1.67;;
52618;SDS011;38513;53.234;6.568;2023-07-29T19:04:55;7.10;;;1.95;;
52618;SDS011;38513;53.234;6.568;2023-07-29T19:07:21;4.88;;;1.73;;
52618;SDS011;38513;53.234;6.568;2023-07-29T19:09:49;5.00;;;1.63;;
52618;SDS011;38513;53.234;6.568;2023-07-29T19:12:19;5.50;;;1.67;;
52618;SDS011;38513;53.234;6.568;2023-07-29T19:14:45;4.82;;;1.60;;
52618;SDS011;38513;53.234;6.568;2023-07-29T19:17:11;5.43;;;1.73;;
52618;SDS011;38513;53.234;6.568;2023-07-29T19:19:40;4.55;;;1.85;;
52618;SDS011;38513;53.234;6.568;2023-07-29T19:22:12;5.75;;;2.10;;
52618;SDS011;38513;53.234;6.568;2023-07-29T19:24:41;6.05;;;2.10;;
52618;SDS011;38513;53.234;6.568;2023-07-29T19:27:09;5.57;;;1.80;;
52618;SDS011;38513;53.234;6.568;2023-07-29T19:29:36;6.13;;;2.20;;
52618;SDS011;38513;53.234;6.568;2023-07-29T19:32:02;6.15;;;2.05;;
52618;SDS011;38513;53.234;6.568;2023-07-29T19:34:34;5.85;;;2.20;;
52618;SDS011;38513;53.234;6.568;2023-07-29T19:37:01;6.00;;;2.25;;
52618;SDS011;38513;53.234;6.568;2023-07-29T19:39:29;6.93;;;2.20;;
52618;SDS011;38513;53.234;6.568;2023-07-29T19:41:58;6.53;;;2.13;;
52618;SDS011;38513;53.234;6.568;2023-07-29T19:44:25;6.80;;;2.20;;
52618;SDS011;38513;53.234;6.568;2023-07-29T19:46:52;5.93;;;2.20;;
52618;SDS011;38513;53.234;6.568;2023-07-29T19:49:18;6.15;;;2.33;;
52618;SDS011;38513;53.234;6.568;2023-07-29T19:51:44;5.72;;;2.33;;
52618;SDS011;38513;53.234;6.568;2023-07-29T19:54:10;5.30;;;2.13;;
52618;SDS011;38513;53.234;6.568;2023-07-29T19:56:37;6.72;;;2.38;;
52618;SDS011;38513;53.234;6.568;2023-07-29T19:59:05;6.78;;;2.38;;
52618;SDS011;38513;53.234;6.568;2023-07-29T20:01:34;6.15;;;2.40;;
52618;SDS011;38513;53.234;6.568;2023-07-29T20:04:00;6.22;;;2.60;;
52618;SDS011;38513;53.234;6.568;2023-07-29T20:06:29;6.93;;;2.65;;
52618;SDS011;38513;53.234;6.568;2023-07-29T20:08:56;6.30;;;2.90;;
52618;SDS011;38513;53.234;6.568;2023-07-29T20:11:23;8.20;;;2.85;;
52618;SDS011;38513;53.234;6.568;2023-07-29T20:13:54;6.63;;;2.78;;
52618;SDS011;38513;53.234;6.568;2023-07-29T20:16:21;6.22;;;3.13;;
52618;SDS011;38513;53.234;6.568;2023-07-29T20:18:53;8.73;;;3.55;;
52618;SDS011;38513;53.234;6.568;2023-07-29T20:21:22;8.55;;;3.42;;
52618;SDS011;38513;53.234;6.568;2023-07-29T20:23:48;7.82;;;3.20;;
52618;SDS011;38513;53.234;6.568;2023-07-29T20:26:16;8.18;;;3.20;;
52618;SDS011;38513;53.234;6.568;2023-07-29T20:28:45;7.88;;;3.45;;
52618;SDS011;38513;53.234;6.568;2023-07-29T20:31:12;8.02;;;2.90;;
52618;SDS011;38513;53.234;6.568;2023-07-29T20:33:41;8.38;;;3.40;;
52618;SDS011;38513;53.234;6.568;2023-07-29T20:36:07;11.05;;;3.80;;
52618;SDS011;38513;53.234;6.568;2023-07-29T20:38:36;8.35;;;3.53;;
52618;SDS011;38513;53.234;6.568;2023-07-29T20:41:02;7.20;;;3.77;;
52618;SDS011;38513;53.234;6.568;2023-07-29T20:43:28;8.77;;;3.65;;
52618;SDS011;38513;53.234;6.568;2023-07-29T20:45:55;9.00;;;3.45;;
52618;SDS011;38513;53.234;6.568;2023-07-29T20:48:21;8.45;;;3.78;;
52618;SDS011;38513;53.234;6.568;2023-07-29T20:50:48;8.57;;;3.53;;
52618;SDS011;38513;53.234;6.568;2023-07-29T20:53:14;8.67;;;4.07;;
52618;SDS011;38513;53.234;6.568;2023-07-29T20:55:43;7.83;;;3.70;;
52618;SDS011;38513;53.234;6.568;2023-07-29T20:58:09;9.68;;;4.45;;
52618;SDS011;38513;53.234;6.568;2023-07-29T21:00:36;9.10;;;4.13;;
52618;SDS011;38513;53.234;6.568;2023-07-29T21:03:02;9.38;;;4.30;;
52618;SDS011;38513;53.234;6.568;2023-07-29T21:05:28;8.20;;;4.00;;
52618;SDS011;38513;53.234;6.568;2023-07-29T21:07:54;12.20;;;4.63;;
52618;SDS011;38513;53.234;6.568;2023-07-29T21:10:23;11.23;;;4.40;;
52618;SDS011;38513;53.234;6.568;2023-07-29T21:12:49;10.30;;;4.03;;
52618;SDS011;38513;53.234;6.568;2023-07-29T21:15:19;9.27;;;4.15;;
52618;SDS011;38513;53.234;6.568;2023-07-29T21:17:45;11.00;;;4.43;;
52618;SDS011;38513;53.234;6.568;2023-07-29T21:20:11;11.75;;;4.63;;
52618;SDS011;38513;53.234;6.568;2023-07-29T21:22:37;11.77;;;4.43;;
52618;SDS011;38513;53.234;6.568;2023-07-29T21:25:12;12.53;;;4.60;;
52618;SDS011;38513;53.234;6.568;2023-07-29T21:27:39;10.23;;;4.53;;
52618;SDS011;38513;53.234;6.568;2023-07-29T21:30:05;12.55;;;4.60;;
52618;SDS011;38513;53.234;6.568;2023-07-29T21:32:31;9.70;;;4.63;;
52618;SDS011;38513;53.234;6.568;2023-07-29T21:34:57;10.90;;;5.07;;
52618;SDS011;38513;53.234;6.568;2023-07-29T21:37:24;11.80;;;4.88;;
52618;SDS011;38513;53.234;6.568;2023-07-29T21:39:50;10.38;;;4.90;;
52618;SDS011;38513;53.234;6.568;2023-07-29T21:42:19;10.67;;;5.17;;
52618;SDS011;38513;53.234;6.568;2023-07-29T21:44:48;11.82;;;5.63;;
52618;SDS011;38513;53.234;6.568;2023-07-29T21:47:14;12.23;;;5.55;;
52618;SDS011;38513;53.234;6.568;2023-07-29T21:49:40;11.57;;;5.20;;
52618;SDS011;38513;53.234;6.568;2023-07-29T21:52:09;11.55;;;5.30;;
52618;SDS011;38513;53.234;6.568;2023-07-29T21:54:41;11.63;;;5.70;;
52618;SDS011;38513;53.234;6.568;2023-07-29T21:57:08;12.77;;;5.30;;
52618;SDS011;38513;53.234;6.568;2023-07-29T21:59:34;11.40;;;5.63;;
52618;SDS011;38513;53.234;6.568;2023-07-29T22:02:07;12.68;;;5.13;;
52618;SDS011;38513;53.234;6.568;2023-07-29T22:04:34;12.20;;;5.30;;
52618;SDS011;38513;53.234;6.568;2023-07-29T22:07:00;11.30;;;5.10;;
52618;SDS011;38513;53.234;6.568;2023-07-29T22:09:26;11.20;;;5.20;;
52618;SDS011;38513;53.234;6.568;2023-07-29T22:11:53;12.27;;;5.40;;
52618;SDS011;38513;53.234;6.568;2023-07-29T22:14:19;12.43;;;5.20;;
52618;SDS011;38513;53.234;6.568;2023-07-29T22:16:46;13.27;;;5.70;;
52618;SDS011;38513;53.234;6.568;2023-07-29T22:19:19;17.27;;;5.75;;
52618;SDS011;38513;53.234;6.568;2023-07-29T22:21:46;17.02;;;6.22;;
52618;SDS011;38513;53.234;6.568;2023-07-29T22:24:18;16.83;;;5.75;;
52618;SDS011;38513;53.234;6.568;2023-07-29T22:26:45;16.02;;;6.05;;
52618;SDS011;38513;53.234;6.568;2023-07-29T22:29:11;13.10;;;5.97;;
52618;SDS011;38513;53.234;6.568;2023-07-29T22:31:41;15.20;;;5.97;;
52618;SDS011;38513;53.234;6.568;2023-07-29T22:34:07;14.77;;;5.90;;
52618;SDS011;38513;53.234;6.568;2023-07-29T22:36:33;18.87;;;6.43;;
52618;SDS011;38513;53.234;6.568;2023-07-29T22:38:59;17.63;;;5.88;;
52618;SDS011;38513;53.234;6.568;2023-07-29T22:41:25;14.23;;;6.35;;
52618;SDS011;38513;53.234;6.568;2023-07-29T22:43:51;15.23;;;6.40;;
52618;SDS011;38513;53.234;6.568;2023-07-29T22:46:17;16.50;;;6.68;;
52618;SDS011;38513;53.234;6.568;2023-07-29T22:48:46;20.02;;;6.95;;
52618;SDS011;38513;53.234;6.568;2023-07-29T22:51:12;17.17;;;6.65;;
52618;SDS011;38513;53.234;6.568;2023-07-29T22:53:39;19.20;;;7.38;;
52618;SDS011;38513;53.234;6.568;2023-07-29T22:56:05;16.07;;;6.83;;
52618;SDS011;38513;53.234;6.568;2023-07-29T22:58:31;17.85;;;6.72;;
52618;SDS011;38513;53.234;6.568;2023-07-29T23:01:00;18.33;;;7.18;;
52618;SDS011;38513;53.234;6.568;2023-07-29T23:03:26;15.07;;;6.60;;
52618;SDS011;38513;53.234;6.568;2023-07-29T23:05:52;19.48;;;6.75;;
52618;SDS011;38513;53.234;6.568;2023-07-29T23:08:18;19.27;;;7.00;;
52618;SDS011;38513;53.234;6.568;2023-07-29T23:10:44;23.33;;;7.03;;
52618;SDS011;38513;53.234;6.568;2023-07-29T23:13:14;18.80;;;7.38;;
52618;SDS011;38513;53.234;6.568;2023-07-29T23:15:40;21.23;;;7.30;;
52618;SDS011;38513;53.234;6.568;2023-07-29T23:18:10;16.13;;;7.38;;
52618;SDS011;38513;53.234;6.568;2023-07-29T23:20:36;23.98;;;7.53;;
52618;SDS011;38513;53.234;6.568;2023-07-29T23:23:02;23.48;;;7.30;;
52618;SDS011;38513;53.234;6.568;2023-07-29T23:25:34;17.63;;;7.30;;
52618;SDS011;38513;53.234;6.568;2023-07-29T23:28:00;18.60;;;7.28;;
52618;SDS011;38513;53.234;6.568;2023-07-29T23:30:26;21.10;;;7.60;;
52618;SDS011;38513;53.234;6.568;2023-07-29T23:32:53;19.95;;;7.25;;
52618;SDS011;38513;53.234;6.568;2023-07-29T23:35:19;20.98;;;8.10;;
52618;SDS011;38513;53.234;6.568;2023-07-29T23:37:45;19.00;;;7.82;;
52618;SDS011;38513;53.234;6.568;2023-07-29T23:40:11;20.90;;;8.10;;
52618;SDS011;38513;53.234;6.568;2023-07-29T23:42:37;21.30;;;7.90;;
52618;SDS011;38513;53.234;6.568;2023-07-29T23:45:04;22.92;;;8.18;;
52618;SDS011;38513;53.234;6.568;2023-07-29T23:47:30;22.98;;;8.25;;
52618;SDS011;38513;53.234;6.568;2023-07-29T23:49:56;20.90;;;8.30;;
52618;SDS011;38513;53.234;6.568;2023-07-29T23:52:23;20.70;;;7.72;;
52618;SDS011;38513;53.234;6.568;2023-07-29T23:54:49;25.30;;;9.18;;
52618;SDS011;38513;53.234;6.568;2023-07-29T23:57:15;18.45;;;8.02;;
52618;SDS011;38513;53.234;6.568;2023-07-29T23:59:41;20.42;;;8.00;;
